Portada
METAR-TAF:

METAR-TAF

Aeroports :

Pamplona, Espanya

latitud: 42-46N, longitud: 001-38W, altitud: 459 m

Observació

L'informe es va fer fa 22 minuts, a les 18:30 UTC
Vent 7 kt del Nord-Oest
Temperatura 16°C
Humitat 82%
Pressió 1020 hPa
Visibilitat 10 km o més
Escasses núvols a una alçada de 2700 ft

METAR: LEPP 191830Z 31007KT 9999 FEW027 16/13 Q1020

Hora: 20:52 (18:52 UTC)

Pronòstic

L'informe es va fer fa 4 hores i 52 minuts, a les 14:00 UTC
Pronòstic vàlid del 19 a les 15 UTC al 20 a les 15 UTC
Vent 9 kt del Nord/Nord-Oest
Visibilitat 10 km o més
Núvols disperses a una alçada de 2000 ft
Cel ennuvolat a una alçada de 4000 ft
Probabilitat 40% :
Temporalment
l' 19 a les 15 UTC al 19 a les 21 UTC
pluja
Temporalment
l' 19 a les 21 UTC al 20 a les 09 UTC
Cel ennuvolat a una alçada de 1000 ft
pluja

TAF: LEPP 191400Z 1915/2015 33009KT 9999 SCT020 BKN040 TX22/2014Z TN11/2006Z PROB40 TEMPO 1915/1921 RA TEMPO 1921/2009 RA BKN010

Observacions i pronòstics meteorològics de més de 4000 aeroports (METAR i TAF).

Les estacions disponibles són els punts grocs i vermells al mapa.

Posi el ratolí al punt desitjat per veure el nom de l'estació.

Feu clic per veure les observacions i els pronòstics meteorològics.

Per canviar el mapa: feu clic els botons verds amb una creu de color negre per apropar; al botó verd amb un guió per allunyar la imatge; o en les fletxes verdes per a mapes adjacents.


METAR-TAF: